sensor_id;sensor_type;location;lat;lon;timestamp;temperature;humidity
20856;DHT22;63058;49.424;8.420;2022-12-17T00:01:42;-2.80;93.70
20856;DHT22;63058;49.424;8.420;2022-12-17T00:04:29;-2.80;93.80
20856;DHT22;63058;49.424;8.420;2022-12-17T00:07:13;-2.80;93.70
20856;DHT22;63058;49.424;8.420;2022-12-17T00:09:57;-2.60;93.80
20856;DHT22;63058;49.424;8.420;2022-12-17T00:12:45;-2.80;93.70
20856;DHT22;63058;49.424;8.420;2022-12-17T00:15:30;-2.80;93.70
20856;DHT22;63058;49.424;8.420;2022-12-17T00:18:16;-2.80;93.50
20856;DHT22;63058;49.424;8.420;2022-12-17T00:21:00;-2.80;93.40
20856;DHT22;63058;49.424;8.420;2022-12-17T00:23:48;-2.80;93.70
20856;DHT22;63058;49.424;8.420;2022-12-17T00:26:33;-2.80;93.50
20856;DHT22;63058;49.424;8.420;2022-12-17T00:29:17;-2.80;93.50
20856;DHT22;63058;49.424;8.420;2022-12-17T00:32:08;-2.80;93.40
20856;DHT22;63058;49.424;8.420;2022-12-17T00:34:53;-2.80;93.30
20856;DHT22;63058;49.424;8.420;2022-12-17T00:37:47;-2.80;93.20
20856;DHT22;63058;49.424;8.420;2022-12-17T00:40:31;-2.80;93.40
20856;DHT22;63058;49.424;8.420;2022-12-17T00:43:15;-2.90;93.00
20856;DHT22;63058;49.424;8.420;2022-12-17T00:46:00;-3.00;93.00
20856;DHT22;63058;49.424;8.420;2022-12-17T00:48:44;-2.80;93.00
20856;DHT22;63058;49.424;8.420;2022-12-17T00:51:29;-2.90;93.10
20856;DHT22;63058;49.424;8.420;2022-12-17T00:54:13;-3.00;93.00
20856;DHT22;63058;49.424;8.420;2022-12-17T00:56:59;-3.00;93.00
20856;DHT22;63058;49.424;8.420;2022-12-17T00:59:43;-3.00;93.10
20856;DHT22;63058;49.424;8.420;2022-12-17T01:02:31;-3.00;93.20
20856;DHT22;63058;49.424;8.420;2022-12-17T01:05:15;-3.00;93.20
20856;DHT22;63058;49.424;8.420;2022-12-17T01:08:11;-3.00;93.20
20856;DHT22;63058;49.424;8.420;2022-12-17T01:11:04;-3.00;93.20
20856;DHT22;63058;49.424;8.420;2022-12-17T01:13:49;-3.10;93.00
20856;DHT22;63058;49.424;8.420;2022-12-17T01:16:37;-3.00;93.00
20856;DHT22;63058;49.424;8.420;2022-12-17T01:19:21;-3.20;92.90
20856;DHT22;63058;49.424;8.420;2022-12-17T01:22:05;-3.20;92.90
20856;DHT22;63058;49.424;8.420;2022-12-17T01:24:49;-3.20;93.00
20856;DHT22;63058;49.424;8.420;2022-12-17T01:27:33;-3.20;93.10
20856;DHT22;63058;49.424;8.420;2022-12-17T01:30:17;-3.20;93.10
20856;DHT22;63058;49.424;8.420;2022-12-17T01:33:03;-3.20;93.00
20856;DHT22;63058;49.424;8.420;2022-12-17T01:35:48;-3.20;93.00
20856;DHT22;63058;49.424;8.420;2022-12-17T01:38:32;-3.20;93.00
20856;DHT22;63058;49.424;8.420;2022-12-17T01:41:20;-3.20;93.10
20856;DHT22;63058;49.424;8.420;2022-12-17T01:47:32;-3.20;93.20
20856;DHT22;63058;49.424;8.420;2022-12-17T01:50:19;-3.20;93.20
20856;DHT22;63058;49.424;8.420;2022-12-17T01:53:07;-3.20;93.20
20856;DHT22;63058;49.424;8.420;2022-12-17T01:55:53;-3.20;93.20
20856;DHT22;63058;49.424;8.420;2022-12-17T01:58:39;-3.20;93.10
20856;DHT22;63058;49.424;8.420;2022-12-17T02:01:26;-3.30;92.90
20856;DHT22;63058;49.424;8.420;2022-12-17T02:04:11;-3.20;92.80
20856;DHT22;63058;49.424;8.420;2022-12-17T02:07:16;-3.20;92.90
20856;DHT22;63058;49.424;8.420;2022-12-17T02:10:20;-3.30;93.00
20856;DHT22;63058;49.424;8.420;2022-12-17T02:13:24;-3.30;93.00
20856;DHT22;63058;49.424;8.420;2022-12-17T02:16:25;-3.30;93.10
20856;DHT22;63058;49.424;8.420;2022-12-17T02:19:41;-3.30;92.90
20856;DHT22;63058;49.424;8.420;2022-12-17T02:22:53;-3.40;92.70
20856;DHT22;63058;49.424;8.420;2022-12-17T02:25:58;-3.40;92.80
20856;DHT22;63058;49.424;8.420;2022-12-17T02:28:48;-3.40;92.90
20856;DHT22;63058;49.424;8.420;2022-12-17T02:31:34;-3.40;92.90
20856;DHT22;63058;49.424;8.420;2022-12-17T02:34:18;-3.40;92.70
20856;DHT22;63058;49.424;8.420;2022-12-17T02:37:02;-3.40;92.70
20856;DHT22;63058;49.424;8.420;2022-12-17T02:39:48;-3.50;92.60
20856;DHT22;63058;49.424;8.420;2022-12-17T02:42:32;-3.40;92.80
20856;DHT22;63058;49.424;8.420;2022-12-17T02:45:17;-3.50;92.90
20856;DHT22;63058;49.424;8.420;2022-12-17T02:48:02;-3.50;93.20
20856;DHT22;63058;49.424;8.420;2022-12-17T02:50:51;-3.50;92.70
20856;DHT22;63058;49.424;8.420;2022-12-17T02:53:44;-3.50;92.60
20856;DHT22;63058;49.424;8.420;2022-12-17T02:56:29;-3.50;92.80
20856;DHT22;63058;49.424;8.420;2022-12-17T02:59:13;-3.50;92.90
20856;DHT22;63058;49.424;8.420;2022-12-17T03:01:58;-3.50;93.00
20856;DHT22;63058;49.424;8.420;2022-12-17T03:04:42;-3.50;93.00
20856;DHT22;63058;49.424;8.420;2022-12-17T03:07:26;-3.50;93.00
20856;DHT22;63058;49.424;8.420;2022-12-17T03:10:10;-3.50;93.00
20856;DHT22;63058;49.424;8.420;2022-12-17T03:12:54;-3.50;92.90
20856;DHT22;63058;49.424;8.420;2022-12-17T03:15:40;-3.50;93.00
20856;DHT22;63058;49.424;8.420;2022-12-17T03:18:27;-3.50;93.20
20856;DHT22;63058;49.424;8.420;2022-12-17T03:21:11;-3.40;93.30
20856;DHT22;63058;49.424;8.420;2022-12-17T03:23:55;-3.40;93.30
20856;DHT22;63058;49.424;8.420;2022-12-17T03:26:41;-3.40;93.40
20856;DHT22;63058;49.424;8.420;2022-12-17T03:29:25;-3.30;93.50
20856;DHT22;63058;49.424;8.420;2022-12-17T03:32:10;-3.30;93.60
20856;DHT22;63058;49.424;8.420;2022-12-17T03:34:58;-3.30;93.60
20856;DHT22;63058;49.424;8.420;2022-12-17T03:37:42;-3.10;93.80
20856;DHT22;63058;49.424;8.420;2022-12-17T03:40:27;-3.20;93.80
20856;DHT22;63058;49.424;8.420;2022-12-17T03:43:15;-3.10;93.70
20856;DHT22;63058;49.424;8.420;2022-12-17T03:45:59;-3.10;93.50
20856;DHT22;63058;49.424;8.420;2022-12-17T03:48:44;-3.10;93.40
20856;DHT22;63058;49.424;8.420;2022-12-17T03:51:28;-3.20;93.20
20856;DHT22;63058;49.424;8.420;2022-12-17T03:54:13;-3.20;93.10
20856;DHT22;63058;49.424;8.420;2022-12-17T03:56:57;-3.20;93.10
20856;DHT22;63058;49.424;8.420;2022-12-17T03:59:46;-3.20;93.00
20856;DHT22;63058;49.424;8.420;2022-12-17T04:02:34;-3.30;92.70
20856;DHT22;63058;49.424;8.420;2022-12-17T04:05:18;-3.30;92.60
20856;DHT22;63058;49.424;8.420;2022-12-17T04:08:02;-3.50;92.50
20856;DHT22;63058;49.424;8.420;2022-12-17T04:10:46;-3.40;92.80
20856;DHT22;63058;49.424;8.420;2022-12-17T04:13:31;-3.50;92.30
20856;DHT22;63058;49.424;8.420;2022-12-17T04:16:14;-3.50;92.30
20856;DHT22;63058;49.424;8.420;2022-12-17T04:18:59;-3.60;92.30
20856;DHT22;63058;49.424;8.420;2022-12-17T04:21:43;-3.60;92.80
20856;DHT22;63058;49.424;8.420;2022-12-17T04:24:28;-3.70;92.80
20856;DHT22;63058;49.424;8.420;2022-12-17T04:27:17;-3.70;92.40
20856;DHT22;63058;49.424;8.420;2022-12-17T04:30:02;-3.70;92.50
20856;DHT22;63058;49.424;8.420;2022-12-17T04:32:48;-3.70;92.50
20856;DHT22;63058;49.424;8.420;2022-12-17T04:35:35;-3.70;92.40
20856;DHT22;63058;49.424;8.420;2022-12-17T04:38:26;-3.70;92.40
20856;DHT22;63058;49.424;8.420;2022-12-17T04:41:13;-3.70;92.40
20856;DHT22;63058;49.424;8.420;2022-12-17T04:43:59;-3.70;92.40
20856;DHT22;63058;49.424;8.420;2022-12-17T04:46:43;-3.70;92.30
20856;DHT22;63058;49.424;8.420;2022-12-17T04:49:27;-3.70;92.40
20856;DHT22;63058;49.424;8.420;2022-12-17T04:52:17;-3.80;92.50
20856;DHT22;63058;49.424;8.420;2022-12-17T04:55:02;-3.70;92.80
20856;DHT22;63058;49.424;8.420;2022-12-17T04:57:49;-3.70;92.90
20856;DHT22;63058;49.424;8.420;2022-12-17T05:00:39;-3.60;93.20
20856;DHT22;63058;49.424;8.420;2022-12-17T05:03:26;-3.60;93.20
20856;DHT22;63058;49.424;8.420;2022-12-17T05:06:12;-3.50;93.40
20856;DHT22;63058;49.424;8.420;2022-12-17T05:08:56;-3.50;93.40
20856;DHT22;63058;49.424;8.420;2022-12-17T05:11:40;-3.40;93.60
20856;DHT22;63058;49.424;8.420;2022-12-17T05:14:24;-3.40;93.60
20856;DHT22;63058;49.424;8.420;2022-12-17T05:17:28;-3.30;93.60
20856;DHT22;63058;49.424;8.420;2022-12-17T05:20:13;-3.20;93.40
20856;DHT22;63058;49.424;8.420;2022-12-17T05:23:04;-3.20;93.50
20856;DHT22;63058;49.424;8.420;2022-12-17T05:25:49;-3.20;93.60
20856;DHT22;63058;49.424;8.420;2022-12-17T05:28:43;-3.20;93.70
20856;DHT22;63058;49.424;8.420;2022-12-17T05:31:29;-3.10;93.70
20856;DHT22;63058;49.424;8.420;2022-12-17T05:34:13;-3.10;93.70
20856;DHT22;63058;49.424;8.420;2022-12-17T05:37:00;-3.10;93.80
20856;DHT22;63058;49.424;8.420;2022-12-17T05:39:45;-3.10;93.80
20856;DHT22;63058;49.424;8.420;2022-12-17T05:42:32;-3.00;94.10
20856;DHT22;63058;49.424;8.420;2022-12-17T05:45:16;-3.00;94.30
20856;DHT22;63058;49.424;8.420;2022-12-17T05:48:01;-3.00;94.50
20856;DHT22;63058;49.424;8.420;2022-12-17T05:50:49;-2.80;94.70
20856;DHT22;63058;49.424;8.420;2022-12-17T05:53:33;-2.70;94.80
20856;DHT22;63058;49.424;8.420;2022-12-17T05:56:18;-2.70;95.00
20856;DHT22;63058;49.424;8.420;2022-12-17T05:59:08;-2.50;95.10
20856;DHT22;63058;49.424;8.420;2022-12-17T06:01:52;-2.50;95.10
20856;DHT22;63058;49.424;8.420;2022-12-17T06:04:38;-2.40;95.30
20856;DHT22;63058;49.424;8.420;2022-12-17T06:07:34;-2.30;95.30
20856;DHT22;63058;49.424;8.420;2022-12-17T06:10:21;-2.20;95.30
20856;DHT22;63058;49.424;8.420;2022-12-17T06:13:08;-2.20;95.30
20856;DHT22;63058;49.424;8.420;2022-12-17T06:16:00;-2.00;95.40
20856;DHT22;63058;49.424;8.420;2022-12-17T06:18:45;-2.00;95.40
20856;DHT22;63058;49.424;8.420;2022-12-17T06:21:43;-2.00;95.50
20856;DHT22;63058;49.424;8.420;2022-12-17T06:24:34;-1.80;95.60
20856;DHT22;63058;49.424;8.420;2022-12-17T06:27:22;-1.80;95.70
20856;DHT22;63058;49.424;8.420;2022-12-17T06:30:07;-1.80;95.70
20856;DHT22;63058;49.424;8.420;2022-12-17T06:33:07;-1.70;95.80
20856;DHT22;63058;49.424;8.420;2022-12-17T06:36:19;-1.70;95.80
20856;DHT22;63058;49.424;8.420;2022-12-17T06:39:08;-1.60;95.70
20856;DHT22;63058;49.424;8.420;2022-12-17T06:41:55;-1.60;95.70
20856;DHT22;63058;49.424;8.420;2022-12-17T06:45:13;-1.60;95.70
20856;DHT22;63058;49.424;8.420;2022-12-17T06:48:16;-1.50;95.50
20856;DHT22;63058;49.424;8.420;2022-12-17T06:54:30;-1.40;95.50
20856;DHT22;63058;49.424;8.420;2022-12-17T07:38:32;-1.30;96.30
20856;DHT22;63058;49.424;8.420;2022-12-17T07:41:17;-1.20;96.30
20856;DHT22;63058;49.424;8.420;2022-12-17T07:44:01;-1.20;96.40
20856;DHT22;63058;49.424;8.420;2022-12-17T07:46:45;-1.10;96.50
20856;DHT22;63058;49.424;8.420;2022-12-17T07:49:29;-1.10;96.50
20856;DHT22;63058;49.424;8.420;2022-12-17T07:52:13;-1.00;96.60
20856;DHT22;63058;49.424;8.420;2022-12-17T07:54:57;-1.00;96.50
20856;DHT22;63058;49.424;8.420;2022-12-17T07:57:41;-1.00;96.50
20856;DHT22;63058;49.424;8.420;2022-12-17T08:00:25;-1.00;96.70
20856;DHT22;63058;49.424;8.420;2022-12-17T08:03:10;-1.00;96.60
20856;DHT22;63058;49.424;8.420;2022-12-17T08:05:57;-1.00;96.60
20856;DHT22;63058;49.424;8.420;2022-12-17T08:08:41;-1.00;96.50
20856;DHT22;63058;49.424;8.420;2022-12-17T08:11:25;-1.00;96.60
20856;DHT22;63058;49.424;8.420;2022-12-17T08:14:10;-1.00;96.70
20856;DHT22;63058;49.424;8.420;2022-12-17T08:16:54;-1.00;96.90
20856;DHT22;63058;49.424;8.420;2022-12-17T08:19:38;-1.00;97.00
20856;DHT22;63058;49.424;8.420;2022-12-17T08:22:22;-0.90;97.00
20856;DHT22;63058;49.424;8.420;2022-12-17T08:25:06;-0.90;97.00
20856;DHT22;63058;49.424;8.420;2022-12-17T08:27:58;-0.90;97.10
20856;DHT22;63058;49.424;8.420;2022-12-17T08:30:46;-0.80;97.10
20856;DHT22;63058;49.424;8.420;2022-12-17T08:33:30;-0.70;97.20
20856;DHT22;63058;49.424;8.420;2022-12-17T08:36:14;-0.90;97.00
20856;DHT22;63058;49.424;8.420;2022-12-17T08:38:58;-0.80;97.00
20856;DHT22;63058;49.424;8.420;2022-12-17T08:41:43;-0.80;97.10
20856;DHT22;63058;49.424;8.420;2022-12-17T08:44:27;-0.80;97.10
20856;DHT22;63058;49.424;8.420;2022-12-17T08:47:11;-0.80;97.10
20856;DHT22;63058;49.424;8.420;2022-12-17T08:49:55;-0.80;97.30
20856;DHT22;63058;49.424;8.420;2022-12-17T08:52:39;-0.80;97.40
20856;DHT22;63058;49.424;8.420;2022-12-17T08:55:23;-0.80;97.20
20856;DHT22;63058;49.424;8.420;2022-12-17T08:58:27;-0.80;97.10
20856;DHT22;63058;49.424;8.420;2022-12-17T09:01:14;-0.80;97.10
20856;DHT22;63058;49.424;8.420;2022-12-17T09:03:58;-0.80;97.30
20856;DHT22;63058;49.424;8.420;2022-12-17T09:06:44;-0.80;97.30
20856;DHT22;63058;49.424;8.420;2022-12-17T09:09:28;-0.90;97.40
20856;DHT22;63058;49.424;8.420;2022-12-17T09:12:12;-0.80;97.40
20856;DHT22;63058;49.424;8.420;2022-12-17T09:14:56;-0.80;97.40
20856;DHT22;63058;49.424;8.420;2022-12-17T09:17:40;-0.80;97.50
20856;DHT22;63058;49.424;8.420;2022-12-17T09:20:24;-0.80;97.50
20856;DHT22;63058;49.424;8.420;2022-12-17T09:23:09;-0.70;97.50
20856;DHT22;63058;49.424;8.420;2022-12-17T09:25:54;-0.80;97.50
20856;DHT22;63058;49.424;8.420;2022-12-17T09:28:39;-0.80;97.60
20856;DHT22;63058;49.424;8.420;2022-12-17T09:31:23;-0.70;97.80
20856;DHT22;63058;49.424;8.420;2022-12-17T09:34:07;-0.70;97.90
20856;DHT22;63058;49.424;8.420;2022-12-17T09:36:51;-0.60;97.90
20856;DHT22;63058;49.424;8.420;2022-12-17T09:39:35;-0.60;97.90
20856;DHT22;63058;49.424;8.420;2022-12-17T09:42:30;-0.50;97.80
20856;DHT22;63058;49.424;8.420;2022-12-17T09:45:46;-0.50;97.70
20856;DHT22;63058;49.424;8.420;2022-12-17T09:51:24;-0.60;97.50
20856;DHT22;63058;49.424;8.420;2022-12-17T09:54:44;-0.60;97.70
20856;DHT22;63058;49.424;8.420;2022-12-17T09:57:33;-0.50;97.50
20856;DHT22;63058;49.424;8.420;2022-12-17T10:00:21;-0.50;97.80
20856;DHT22;63058;49.424;8.420;2022-12-17T10:03:14;-0.50;97.80
20856;DHT22;63058;49.424;8.420;2022-12-17T10:06:03;-0.50;97.60
20856;DHT22;63058;49.424;8.420;2022-12-17T10:08:58;-0.50;97.80
20856;DHT22;63058;49.424;8.420;2022-12-17T10:11:43;-0.40;97.50
20856;DHT22;63058;49.424;8.420;2022-12-17T10:14:27;-0.50;97.50
20856;DHT22;63058;49.424;8.420;2022-12-17T10:17:18;-0.50;97.60
20856;DHT22;63058;49.424;8.420;2022-12-17T10:20:09;-0.50;97.70
20856;DHT22;63058;49.424;8.420;2022-12-17T10:22:57;-0.50;97.70
20856;DHT22;63058;49.424;8.420;2022-12-17T10:25:52;-0.60;97.80
20856;DHT22;63058;49.424;8.420;2022-12-17T10:28:37;-0.60;97.70
20856;DHT22;63058;49.424;8.420;2022-12-17T10:31:22;-0.60;97.90
20856;DHT22;63058;49.424;8.420;2022-12-17T10:34:27;-0.60;98.00
20856;DHT22;63058;49.424;8.420;2022-12-17T10:37:19;-0.60;97.90
20856;DHT22;63058;49.424;8.420;2022-12-17T10:40:19;-0.50;98.00
20856;DHT22;63058;49.424;8.420;2022-12-17T10:43:28;-0.60;98.20
20856;DHT22;63058;49.424;8.420;2022-12-17T10:46:28;-0.40;98.20
20856;DHT22;63058;49.424;8.420;2022-12-17T10:49:14;-0.40;98.20
20856;DHT22;63058;49.424;8.420;2022-12-17T10:52:01;-0.30;98.40
20856;DHT22;63058;49.424;8.420;2022-12-17T10:55:02;-0.30;98.60
20856;DHT22;63058;49.424;8.420;2022-12-17T10:57:49;-0.20;98.50
20856;DHT22;63058;49.424;8.420;2022-12-17T11:00:36;-0.10;98.80
20856;DHT22;63058;49.424;8.420;2022-12-17T11:03:48;0.00;98.80
20856;DHT22;63058;49.424;8.420;2022-12-17T11:06:44;0.00;98.40
20856;DHT22;63058;49.424;8.420;2022-12-17T11:09:47;0.10;98.60
20856;DHT22;63058;49.424;8.420;2022-12-17T11:12:54;0.20;98.30
20856;DHT22;63058;49.424;8.420;2022-12-17T11:15:43;0.20;98.70
20856;DHT22;63058;49.424;8.420;2022-12-17T11:18:57;0.30;98.70
20856;DHT22;63058;49.424;8.420;2022-12-17T11:21:49;0.30;98.20
20856;DHT22;63058;49.424;8.420;2022-12-17T11:25:12;0.30;98.30
20856;DHT22;63058;49.424;8.420;2022-12-17T11:28:23;0.40;97.90
20856;DHT22;63058;49.424;8.420;2022-12-17T11:34:47;0.40;98.00
20856;DHT22;63058;49.424;8.420;2022-12-17T11:40:42;0.30;98.00
20856;DHT22;63058;49.424;8.420;2022-12-17T11:43:45;0.30;98.20
20856;DHT22;63058;49.424;8.420;2022-12-17T11:52:46;0.30;98.10
20856;DHT22;63058;49.424;8.420;2022-12-17T11:56:15;0.30;98.00
20856;DHT22;63058;49.424;8.420;2022-12-17T12:02:49;0.30;98.10
20856;DHT22;63058;49.424;8.420;2022-12-17T12:08:28;0.30;98.20
20856;DHT22;63058;49.424;8.420;2022-12-17T12:14:38;0.30;98.10
20856;DHT22;63058;49.424;8.420;2022-12-17T12:18:03;0.20;98.00
20856;DHT22;63058;49.424;8.420;2022-12-17T12:24:26;0.20;97.80
20856;DHT22;63058;49.424;8.420;2022-12-17T12:31:00;0.10;98.10
20856;DHT22;63058;49.424;8.420;2022-12-17T12:33:57;0.20;98.10
20856;DHT22;63058;49.424;8.420;2022-12-17T12:36:43;0.20;98.20
20856;DHT22;63058;49.424;8.420;2022-12-17T12:39:37;0.20;98.50
20856;DHT22;63058;49.424;8.420;2022-12-17T12:42:44;0.30;98.40
20856;DHT22;63058;49.424;8.420;2022-12-17T12:48:34;0.40;98.60
20856;DHT22;63058;49.424;8.420;2022-12-17T12:51:29;0.50;98.40
20856;DHT22;63058;49.424;8.420;2022-12-17T12:54:49;0.50;98.20
20856;DHT22;63058;49.424;8.420;2022-12-17T12:57:36;0.50;97.90
20856;DHT22;63058;49.424;8.420;2022-12-17T13:00:38;0.50;98.20
20856;DHT22;63058;49.424;8.420;2022-12-17T13:06:10;0.40;97.90
20856;DHT22;63058;49.424;8.420;2022-12-17T13:08:37;0.40;98.10
20856;DHT22;63058;49.424;8.420;2022-12-17T13:11:25;0.40;97.70
20856;DHT22;63058;49.424;8.420;2022-12-17T13:13:52;0.30;97.40
20856;DHT22;63058;49.424;8.420;2022-12-17T13:17:03;0.20;97.60
20856;DHT22;63058;49.424;8.420;2022-12-17T13:24:49;0.10;97.70
20856;DHT22;63058;49.424;8.420;2022-12-17T13:38:41;-0.10;97.50
20856;DHT22;63058;49.424;8.420;2022-12-17T13:41:14;-0.10;97.70
20856;DHT22;63058;49.424;8.420;2022-12-17T13:43:53;-0.10;98.10
20856;DHT22;63058;49.424;8.420;2022-12-17T13:46:24;0.00;98.10
20856;DHT22;63058;49.424;8.420;2022-12-17T13:49:01;0.10;98.10
20856;DHT22;63058;49.424;8.420;2022-12-17T13:51:30;0.00;97.80
20856;DHT22;63058;49.424;8.420;2022-12-17T13:54:01;0.10;97.90
20856;DHT22;63058;49.424;8.420;2022-12-17T13:56:33;0.00;97.80
20856;DHT22;63058;49.424;8.420;2022-12-17T13:59:01;0.00;98.00
20856;DHT22;63058;49.424;8.420;2022-12-17T14:01:27;0.00;97.90
20856;DHT22;63058;49.424;8.420;2022-12-17T14:03:57;0.00;97.80
20856;DHT22;63058;49.424;8.420;2022-12-17T14:06:32;0.00;97.50
20856;DHT22;63058;49.424;8.420;2022-12-17T14:08:59;0.00;97.30
20856;DHT22;63058;49.424;8.420;2022-12-17T14:11:25;0.00;97.50
20856;DHT22;63058;49.424;8.420;2022-12-17T14:16:58;-0.10;97.00
20856;DHT22;63058;49.424;8.420;2022-12-17T14:19:24;-0.10;97.40
20856;DHT22;63058;49.424;8.420;2022-12-17T14:21:51;-0.10;97.40
20856;DHT22;63058;49.424;8.420;2022-12-17T14:24:20;-0.20;97.40
20856;DHT22;63058;49.424;8.420;2022-12-17T14:26:52;-0.20;97.40
20856;DHT22;63058;49.424;8.420;2022-12-17T14:29:29;-0.30;97.20
20856;DHT22;63058;49.424;8.420;2022-12-17T14:31:57;-0.30;97.10
20856;DHT22;63058;49.424;8.420;2022-12-17T14:34:23;-0.40;97.30
20856;DHT22;63058;49.424;8.420;2022-12-17T14:36:55;-0.40;97.70
20856;DHT22;63058;49.424;8.420;2022-12-17T14:39:29;-0.30;97.30
20856;DHT22;63058;49.424;8.420;2022-12-17T14:41:57;-0.40;97.20
20856;DHT22;63058;49.424;8.420;2022-12-17T14:44:53;-0.40;97.30
20856;DHT22;63058;49.424;8.420;2022-12-17T14:47:26;-0.40;97.20
20856;DHT22;63058;49.424;8.420;2022-12-17T14:49:59;-0.40;97.30
20856;DHT22;63058;49.424;8.420;2022-12-17T14:57:47;-0.40;96.90
20856;DHT22;63058;49.424;8.420;2022-12-17T15:00:13;-0.30;97.10
20856;DHT22;63058;49.424;8.420;2022-12-17T15:02:41;-0.50;97.20
20856;DHT22;63058;49.424;8.420;2022-12-17T15:05:12;-0.50;97.20
20856;DHT22;63058;49.424;8.420;2022-12-17T15:07:38;-0.60;97.10
20856;DHT22;63058;49.424;8.420;2022-12-17T15:10:18;-0.50;97.30
20856;DHT22;63058;49.424;8.420;2022-12-17T15:12:43;-0.60;97.00
20856;DHT22;63058;49.424;8.420;2022-12-17T15:15:13;-0.70;96.80
20856;DHT22;63058;49.424;8.420;2022-12-17T15:17:39;-0.70;96.90
20856;DHT22;63058;49.424;8.420;2022-12-17T15:20:05;-0.80;97.10
20856;DHT22;63058;49.424;8.420;2022-12-17T15:22:31;-0.80;97.10
20856;DHT22;63058;49.424;8.420;2022-12-17T15:24:57;-0.80;97.00
20856;DHT22;63058;49.424;8.420;2022-12-17T15:27:22;-0.80;97.00
20856;DHT22;63058;49.424;8.420;2022-12-17T15:29:48;-0.90;97.00
20856;DHT22;63058;49.424;8.420;2022-12-17T15:32:19;-0.80;97.00
20856;DHT22;63058;49.424;8.420;2022-12-17T15:34:45;-1.00;97.00
20856;DHT22;63058;49.424;8.420;2022-12-17T15:37:12;-0.80;97.20
20856;DHT22;63058;49.424;8.420;2022-12-17T15:39:38;-0.80;97.40
20856;DHT22;63058;49.424;8.420;2022-12-17T15:42:03;-0.90;97.50
20856;DHT22;63058;49.424;8.420;2022-12-17T15:44:47;-0.70;97.50
20856;DHT22;63058;49.424;8.420;2022-12-17T15:47:13;-0.70;97.40
20856;DHT22;63058;49.424;8.420;2022-12-17T15:49:39;-0.70;97.20
20856;DHT22;63058;49.424;8.420;2022-12-17T15:52:04;-0.60;97.10
20856;DHT22;63058;49.424;8.420;2022-12-17T15:54:30;-0.70;96.90
20856;DHT22;63058;49.424;8.420;2022-12-17T15:57:02;-0.60;96.90
20856;DHT22;63058;49.424;8.420;2022-12-17T15:59:27;-0.70;96.70
20856;DHT22;63058;49.424;8.420;2022-12-17T16:01:53;-0.70;96.80
20856;DHT22;63058;49.424;8.420;2022-12-17T16:04:19;-0.80;96.80
20856;DHT22;63058;49.424;8.420;2022-12-17T16:06:44;-0.80;96.90
20856;DHT22;63058;49.424;8.420;2022-12-17T16:09:10;-0.80;97.00
20856;DHT22;63058;49.424;8.420;2022-12-17T16:11:36;-0.70;97.00
20856;DHT22;63058;49.424;8.420;2022-12-17T16:14:01;-0.80;96.90
20856;DHT22;63058;49.424;8.420;2022-12-17T16:16:28;-0.80;96.90
20856;DHT22;63058;49.424;8.420;2022-12-17T16:18:54;-0.70;97.00
20856;DHT22;63058;49.424;8.420;2022-12-17T16:21:20;-0.80;97.00
20856;DHT22;63058;49.424;8.420;2022-12-17T16:23:46;-0.70;97.10
20856;DHT22;63058;49.424;8.420;2022-12-17T16:26:11;-0.80;97.00
20856;DHT22;63058;49.424;8.420;2022-12-17T16:28:37;-0.80;97.00
20856;DHT22;63058;49.424;8.420;2022-12-17T16:31:04;-0.80;96.90
20856;DHT22;63058;49.424;8.420;2022-12-17T16:33:35;-0.90;96.80
20856;DHT22;63058;49.424;8.420;2022-12-17T16:36:01;-0.90;96.80
20856;DHT22;63058;49.424;8.420;2022-12-17T16:38:27;-0.80;96.90
20856;DHT22;63058;49.424;8.420;2022-12-17T16:40:58;-1.00;97.00
20856;DHT22;63058;49.424;8.420;2022-12-17T16:43:24;-1.00;96.90
20856;DHT22;63058;49.424;8.420;2022-12-17T16:45:51;-1.00;96.90
20856;DHT22;63058;49.424;8.420;2022-12-17T16:48:19;-1.00;96.90
20856;DHT22;63058;49.424;8.420;2022-12-17T16:50:45;-0.90;96.90
20856;DHT22;63058;49.424;8.420;2022-12-17T16:53:12;-1.10;96.80
20856;DHT22;63058;49.424;8.420;2022-12-17T16:55:42;-1.10;96.90
20856;DHT22;63058;49.424;8.420;2022-12-17T16:58:09;-1.10;96.90
20856;DHT22;63058;49.424;8.420;2022-12-17T17:00:35;-1.10;97.00
20856;DHT22;63058;49.424;8.420;2022-12-17T17:03:00;-1.10;97.00
20856;DHT22;63058;49.424;8.420;2022-12-17T17:05:30;-1.00;97.00
20856;DHT22;63058;49.424;8.420;2022-12-17T17:07:56;-1.20;96.80
20856;DHT22;63058;49.424;8.420;2022-12-17T17:10:21;-1.00;96.90
20856;DHT22;63058;49.424;8.420;2022-12-17T17:12:49;-1.20;96.90
20856;DHT22;63058;49.424;8.420;2022-12-17T17:15:26;-1.20;96.80
20856;DHT22;63058;49.424;8.420;2022-12-17T17:17:53;-1.20;96.80
20856;DHT22;63058;49.424;8.420;2022-12-17T17:20:19;-1.10;97.50
20856;DHT22;63058;49.424;8.420;2022-12-17T17:22:45;-1.10;97.20
20856;DHT22;63058;49.424;8.420;2022-12-17T17:25:11;-1.10;97.10
20856;DHT22;63058;49.424;8.420;2022-12-17T17:27:36;-1.10;97.00
20856;DHT22;63058;49.424;8.420;2022-12-17T17:30:02;-1.00;96.90
20856;DHT22;63058;49.424;8.420;2022-12-17T17:32:28;-1.00;96.80
20856;DHT22;63058;49.424;8.420;2022-12-17T17:34:54;-1.10;96.80
20856;DHT22;63058;49.424;8.420;2022-12-17T17:37:19;-1.10;96.80
20856;DHT22;63058;49.424;8.420;2022-12-17T17:39:45;-1.10;96.70
20856;DHT22;63058;49.424;8.420;2022-12-17T17:42:10;-1.10;96.60
20856;DHT22;63058;49.424;8.420;2022-12-17T17:44:36;-1.10;96.50
20856;DHT22;63058;49.424;8.420;2022-12-17T17:47:02;-1.20;96.50
20856;DHT22;63058;49.424;8.420;2022-12-17T17:49:28;-1.20;96.60
20856;DHT22;63058;49.424;8.420;2022-12-17T17:51:54;-1.20;96.70
20856;DHT22;63058;49.424;8.420;2022-12-17T17:54:19;-1.20;96.70
20856;DHT22;63058;49.424;8.420;2022-12-17T17:56:45;-1.20;96.70
20856;DHT22;63058;49.424;8.420;2022-12-17T17:59:13;-1.20;96.70
20856;DHT22;63058;49.424;8.420;2022-12-17T18:01:43;-1.20;96.70
20856;DHT22;63058;49.424;8.420;2022-12-17T18:04:15;-1.20;96.70
20856;DHT22;63058;49.424;8.420;2022-12-17T18:06:42;-1.20;96.70
20856;DHT22;63058;49.424;8.420;2022-12-17T18:09:08;-1.20;96.60
20856;DHT22;63058;49.424;8.420;2022-12-17T18:11:34;-1.20;96.50
20856;DHT22;63058;49.424;8.420;2022-12-17T18:14:02;-1.20;96.50
20856;DHT22;63058;49.424;8.420;2022-12-17T18:16:31;-1.30;96.50
20856;DHT22;63058;49.424;8.420;2022-12-17T18:19:06;-1.30;96.70
20856;DHT22;63058;49.424;8.420;2022-12-17T18:21:32;-1.30;96.70
20856;DHT22;63058;49.424;8.420;2022-12-17T18:24:05;-1.20;96.70
20856;DHT22;63058;49.424;8.420;2022-12-17T18:26:34;-1.20;96.70
20856;DHT22;63058;49.424;8.420;2022-12-17T18:29:18;-1.20;96.70
20856;DHT22;63058;49.424;8.420;2022-12-17T18:31:44;-1.20;96.50
20856;DHT22;63058;49.424;8.420;2022-12-17T18:34:16;-1.20;96.60
20856;DHT22;63058;49.424;8.420;2022-12-17T18:36:44;-1.20;96.60
20856;DHT22;63058;49.424;8.420;2022-12-17T18:39:14;-1.20;96.50
20856;DHT22;63058;49.424;8.420;2022-12-17T18:41:41;-1.20;96.30
20856;DHT22;63058;49.424;8.420;2022-12-17T18:44:27;-1.30;96.40
20856;DHT22;63058;49.424;8.420;2022-12-17T18:46:52;-1.30;96.50
20856;DHT22;63058;49.424;8.420;2022-12-17T18:49:19;-1.30;96.50
20856;DHT22;63058;49.424;8.420;2022-12-17T18:51:48;-1.30;96.50
20856;DHT22;63058;49.424;8.420;2022-12-17T18:54:20;-1.30;96.40
20856;DHT22;63058;49.424;8.420;2022-12-17T18:56:46;-1.30;96.40
20856;DHT22;63058;49.424;8.420;2022-12-17T18:59:17;-1.30;96.60